sensor_id;sensor_type;location;lat;lon;timestamp;P1;durP1;ratioP1;P2;durP2;ratioP2
78322;SDS011;67583;50.616;-3.404;2023-10-19T00:01:10;19.48;;;3.20;;
78322;SDS011;67583;50.616;-3.404;2023-10-19T00:03:36;8.27;;;1.90;;
78322;SDS011;67583;50.616;-3.404;2023-10-19T00:06:02;14.38;;;3.00;;
78322;SDS011;67583;50.616;-3.404;2023-10-19T00:08:28;10.43;;;2.17;;
78322;SDS011;67583;50.616;-3.404;2023-10-19T00:11:01;10.45;;;2.30;;
78322;SDS011;67583;50.616;-3.404;2023-10-19T00:13:27;7.15;;;2.38;;
78322;SDS011;67583;50.616;-3.404;2023-10-19T00:15:54;9.15;;;2.13;;
78322;SDS011;67583;50.616;-3.404;2023-10-19T00:18:22;9.75;;;3.83;;
78322;SDS011;67583;50.616;-3.404;2023-10-19T00:20:55;16.50;;;4.68;;
78322;SDS011;67583;50.616;-3.404;2023-10-19T00:23:44;21.20;;;4.35;;
78322;SDS011;67583;50.616;-3.404;2023-10-19T00:26:12;12.75;;;3.42;;
78322;SDS011;67583;50.616;-3.404;2023-10-19T00:28:45;19.17;;;3.90;;
78322;SDS011;67583;50.616;-3.404;2023-10-19T00:31:14;21.88;;;6.00;;
78322;SDS011;67583;50.616;-3.404;2023-10-19T00:33:40;27.58;;;5.28;;
78322;SDS011;67583;50.616;-3.404;2023-10-19T00:36:09;28.48;;;3.95;;
78322;SDS011;67583;50.616;-3.404;2023-10-19T00:38:38;29.70;;;6.30;;
78322;SDS011;67583;50.616;-3.404;2023-10-19T00:41:08;28.33;;;4.13;;
78322;SDS011;67583;50.616;-3.404;2023-10-19T00:43:35;34.33;;;5.78;;
78322;SDS011;67583;50.616;-3.404;2023-10-19T00:46:03;37.30;;;6.88;;
78322;SDS011;67583;50.616;-3.404;2023-10-19T00:48:55;30.33;;;5.22;;
78322;SDS011;67583;50.616;-3.404;2023-10-19T00:51:45;33.80;;;5.53;;
78322;SDS011;67583;50.616;-3.404;2023-10-19T00:54:28;42.10;;;6.30;;
78322;SDS011;67583;50.616;-3.404;2023-10-19T00:56:59;30.42;;;5.63;;
78322;SDS011;67583;50.616;-3.404;2023-10-19T00:59:31;49.78;;;7.22;;
78322;SDS011;67583;50.616;-3.404;2023-10-19T01:02:00;41.40;;;7.03;;
78322;SDS011;67583;50.616;-3.404;2023-10-19T01:04:46;33.83;;;5.43;;
78322;SDS011;67583;50.616;-3.404;2023-10-19T01:07:18;34.45;;;6.40;;
78322;SDS011;67583;50.616;-3.404;2023-10-19T01:09:48;38.17;;;5.35;;
78322;SDS011;67583;50.616;-3.404;2023-10-19T01:12:13;36.53;;;7.10;;
78322;SDS011;67583;50.616;-3.404;2023-10-19T01:15:01;40.50;;;5.57;;
78322;SDS011;67583;50.616;-3.404;2023-10-19T01:17:48;35.38;;;5.78;;
78322;SDS011;67583;50.616;-3.404;2023-10-19T01:20:25;35.88;;;6.10;;
78322;SDS011;67583;50.616;-3.404;2023-10-19T01:22:55;32.83;;;8.15;;
78322;SDS011;67583;50.616;-3.404;2023-10-19T01:25:46;37.92;;;6.03;;
78322;SDS011;67583;50.616;-3.404;2023-10-19T01:28:21;37.45;;;5.70;;
78322;SDS011;67583;50.616;-3.404;2023-10-19T01:31:05;42.50;;;7.70;;
78322;SDS011;67583;50.616;-3.404;2023-10-19T01:33:32;42.75;;;5.47;;
78322;SDS011;67583;50.616;-3.404;2023-10-19T01:35:59;29.95;;;5.22;;
78322;SDS011;67583;50.616;-3.404;2023-10-19T01:38:39;25.42;;;4.97;;
78322;SDS011;67583;50.616;-3.404;2023-10-19T01:41:06;28.67;;;5.00;;
78322;SDS011;67583;50.616;-3.404;2023-10-19T01:43:43;30.65;;;4.75;;
78322;SDS011;67583;50.616;-3.404;2023-10-19T01:46:13;48.00;;;9.07;;
78322;SDS011;67583;50.616;-3.404;2023-10-19T01:48:46;31.88;;;4.93;;
78322;SDS011;67583;50.616;-3.404;2023-10-19T01:51:14;45.78;;;7.03;;
78322;SDS011;67583;50.616;-3.404;2023-10-19T01:53:40;23.52;;;4.53;;
78322;SDS011;67583;50.616;-3.404;2023-10-19T01:56:12;39.40;;;5.72;;
78322;SDS011;67583;50.616;-3.404;2023-10-19T01:58:40;26.00;;;5.47;;
78322;SDS011;67583;50.616;-3.404;2023-10-19T02:01:07;37.45;;;6.85;;
78322;SDS011;67583;50.616;-3.404;2023-10-19T02:03:39;40.75;;;6.63;;
78322;SDS011;67583;50.616;-3.404;2023-10-19T02:06:08;46.20;;;5.82;;
78322;SDS011;67583;50.616;-3.404;2023-10-19T02:09:10;31.80;;;5.85;;
78322;SDS011;67583;50.616;-3.404;2023-10-19T02:11:43;39.95;;;6.30;;
78322;SDS011;67583;50.616;-3.404;2023-10-19T02:14:11;22.42;;;4.28;;
78322;SDS011;67583;50.616;-3.404;2023-10-19T02:16:43;30.00;;;5.20;;
78322;SDS011;67583;50.616;-3.404;2023-10-19T02:19:13;25.05;;;4.78;;
78322;SDS011;67583;50.616;-3.404;2023-10-19T02:21:38;21.33;;;4.30;;
78322;SDS011;67583;50.616;-3.404;2023-10-19T02:24:08;13.60;;;2.35;;
78322;SDS011;67583;50.616;-3.404;2023-10-19T02:26:34;21.08;;;3.95;;
78322;SDS011;67583;50.616;-3.404;2023-10-19T02:29:02;17.45;;;4.10;;
78322;SDS011;67583;50.616;-3.404;2023-10-19T02:31:32;19.58;;;3.03;;
78322;SDS011;67583;50.616;-3.404;2023-10-19T02:34:05;22.92;;;3.00;;
78322;SDS011;67583;50.616;-3.404;2023-10-19T02:36:32;28.10;;;4.13;;
78322;SDS011;67583;50.616;-3.404;2023-10-19T02:38:59;21.42;;;3.70;;
78322;SDS011;67583;50.616;-3.404;2023-10-19T02:41:33;19.50;;;3.45;;
78322;SDS011;67583;50.616;-3.404;2023-10-19T02:44:00;10.05;;;2.50;;
78322;SDS011;67583;50.616;-3.404;2023-10-19T02:46:29;21.33;;;5.10;;
78322;SDS011;67583;50.616;-3.404;2023-10-19T02:48:59;18.80;;;3.83;;
78322;SDS011;67583;50.616;-3.404;2023-10-19T02:51:25;18.85;;;3.20;;
78322;SDS011;67583;50.616;-3.404;2023-10-19T02:53:51;15.50;;;3.35;;
78322;SDS011;67583;50.616;-3.404;2023-10-19T02:56:16;15.75;;;2.85;;
78322;SDS011;67583;50.616;-3.404;2023-10-19T02:58:44;10.85;;;2.83;;
78322;SDS011;67583;50.616;-3.404;2023-10-19T03:01:17;10.60;;;2.50;;
78322;SDS011;67583;50.616;-3.404;2023-10-19T03:03:55;15.70;;;2.75;;
78322;SDS011;67583;50.616;-3.404;2023-10-19T03:06:25;17.83;;;2.90;;
78322;SDS011;67583;50.616;-3.404;2023-10-19T03:08:50;21.83;;;4.20;;
78322;SDS011;67583;50.616;-3.404;2023-10-19T03:13:52;20.52;;;4.00;;
78322;SDS011;67583;50.616;-3.404;2023-10-19T03:16:18;23.83;;;4.18;;
78322;SDS011;67583;50.616;-3.404;2023-10-19T03:18:44;24.10;;;4.43;;
78322;SDS011;67583;50.616;-3.404;2023-10-19T03:21:09;22.30;;;4.10;;
78322;SDS011;67583;50.616;-3.404;2023-10-19T03:23:36;32.22;;;4.85;;
78322;SDS011;67583;50.616;-3.404;2023-10-19T03:26:02;37.58;;;6.53;;
78322;SDS011;67583;50.616;-3.404;2023-10-19T03:31:12;32.40;;;4.17;;
78322;SDS011;67583;50.616;-3.404;2023-10-19T03:33:43;22.52;;;3.85;;
78322;SDS011;67583;50.616;-3.404;2023-10-19T03:36:31;30.13;;;4.78;;
78322;SDS011;67583;50.616;-3.404;2023-10-19T03:38:57;23.73;;;5.32;;
78322;SDS011;67583;50.616;-3.404;2023-10-19T03:41:29;43.80;;;5.82;;
78322;SDS011;67583;50.616;-3.404;2023-10-19T03:44:00;35.25;;;5.35;;
78322;SDS011;67583;50.616;-3.404;2023-10-19T03:46:26;28.17;;;4.75;;
78322;SDS011;67583;50.616;-3.404;2023-10-19T03:48:59;33.95;;;6.45;;
78322;SDS011;67583;50.616;-3.404;2023-10-19T03:51:28;43.10;;;6.07;;
78322;SDS011;67583;50.616;-3.404;2023-10-19T03:54:04;26.42;;;5.22;;
78322;SDS011;67583;50.616;-3.404;2023-10-19T03:56:40;36.08;;;5.85;;
78322;SDS011;67583;50.616;-3.404;2023-10-19T03:59:06;33.08;;;5.13;;
78322;SDS011;67583;50.616;-3.404;2023-10-19T04:01:32;39.30;;;5.88;;
78322;SDS011;67583;50.616;-3.404;2023-10-19T04:03:57;23.45;;;4.45;;
78322;SDS011;67583;50.616;-3.404;2023-10-19T04:06:22;26.33;;;4.40;;
78322;SDS011;67583;50.616;-3.404;2023-10-19T04:08:48;30.02;;;5.40;;
78322;SDS011;67583;50.616;-3.404;2023-10-19T04:11:16;27.52;;;4.13;;
78322;SDS011;67583;50.616;-3.404;2023-10-19T04:13:48;29.65;;;4.72;;
78322;SDS011;67583;50.616;-3.404;2023-10-19T04:16:18;34.75;;;6.35;;
78322;SDS011;67583;50.616;-3.404;2023-10-19T04:18:43;34.00;;;5.90;;
78322;SDS011;67583;50.616;-3.404;2023-10-19T04:21:09;31.80;;;6.72;;
78322;SDS011;67583;50.616;-3.404;2023-10-19T04:23:35;24.73;;;6.40;;
78322;SDS011;67583;50.616;-3.404;2023-10-19T04:26:02;47.67;;;5.70;;
78322;SDS011;67583;50.616;-3.404;2023-10-19T04:28:30;50.15;;;6.80;;
78322;SDS011;67583;50.616;-3.404;2023-10-19T04:30:58;45.63;;;7.75;;
78322;SDS011;67583;50.616;-3.404;2023-10-19T04:33:31;28.40;;;5.03;;
78322;SDS011;67583;50.616;-3.404;2023-10-19T04:35:57;30.25;;;5.30;;
78322;SDS011;67583;50.616;-3.404;2023-10-19T04:38:25;45.85;;;7.90;;
78322;SDS011;67583;50.616;-3.404;2023-10-19T04:40:51;34.40;;;6.82;;
78322;SDS011;67583;50.616;-3.404;2023-10-19T04:43:16;30.98;;;6.10;;
78322;SDS011;67583;50.616;-3.404;2023-10-19T04:45:42;22.25;;;4.32;;
78322;SDS011;67583;50.616;-3.404;2023-10-19T04:48:09;26.52;;;5.45;;
78322;SDS011;67583;50.616;-3.404;2023-10-19T04:50:35;32.20;;;5.32;;
78322;SDS011;67583;50.616;-3.404;2023-10-19T04:53:00;32.13;;;5.80;;
78322;SDS011;67583;50.616;-3.404;2023-10-19T04:55:26;27.42;;;4.90;;
78322;SDS011;67583;50.616;-3.404;2023-10-19T04:57:52;36.53;;;6.88;;
78322;SDS011;67583;50.616;-3.404;2023-10-19T05:00:18;31.30;;;6.18;;
78322;SDS011;67583;50.616;-3.404;2023-10-19T05:02:45;39.80;;;7.20;;
78322;SDS011;67583;50.616;-3.404;2023-10-19T05:05:11;44.22;;;7.65;;
78322;SDS011;67583;50.616;-3.404;2023-10-19T05:07:38;28.67;;;7.03;;
78322;SDS011;67583;50.616;-3.404;2023-10-19T05:10:04;37.60;;;5.70;;
78322;SDS011;67583;50.616;-3.404;2023-10-19T05:12:30;44.55;;;7.07;;
78322;SDS011;67583;50.616;-3.404;2023-10-19T05:14:55;29.50;;;5.70;;
78322;SDS011;67583;50.616;-3.404;2023-10-19T05:17:21;35.20;;;7.10;;
78322;SDS011;67583;50.616;-3.404;2023-10-19T05:19:48;29.85;;;5.55;;
78322;SDS011;67583;50.616;-3.404;2023-10-19T05:22:14;32.40;;;6.90;;
78322;SDS011;67583;50.616;-3.404;2023-10-19T05:24:39;39.30;;;5.43;;
78322;SDS011;67583;50.616;-3.404;2023-10-19T05:27:05;22.67;;;5.70;;
78322;SDS011;67583;50.616;-3.404;2023-10-19T05:29:31;32.88;;;6.10;;
78322;SDS011;67583;50.616;-3.404;2023-10-19T05:32:01;43.45;;;6.35;;
78322;SDS011;67583;50.616;-3.404;2023-10-19T05:34:27;48.85;;;7.82;;
78322;SDS011;67583;50.616;-3.404;2023-10-19T05:36:54;31.38;;;5.60;;
78322;SDS011;67583;50.616;-3.404;2023-10-19T05:39:23;32.25;;;5.75;;
78322;SDS011;67583;50.616;-3.404;2023-10-19T05:41:52;32.85;;;5.25;;
78322;SDS011;67583;50.616;-3.404;2023-10-19T05:44:21;24.25;;;4.85;;
78322;SDS011;67583;50.616;-3.404;2023-10-19T05:46:46;36.92;;;5.38;;
78322;SDS011;67583;50.616;-3.404;2023-10-19T05:49:12;33.63;;;6.82;;
78322;SDS011;67583;50.616;-3.404;2023-10-19T05:51:37;36.63;;;6.90;;
78322;SDS011;67583;50.616;-3.404;2023-10-19T05:54:03;39.88;;;6.10;;
78322;SDS011;67583;50.616;-3.404;2023-10-19T05:56:29;35.67;;;5.68;;
78322;SDS011;67583;50.616;-3.404;2023-10-19T05:58:59;34.30;;;6.57;;
78322;SDS011;67583;50.616;-3.404;2023-10-19T06:01:26;41.28;;;7.15;;
78322;SDS011;67583;50.616;-3.404;2023-10-19T06:03:51;50.63;;;7.47;;
78322;SDS011;67583;50.616;-3.404;2023-10-19T06:06:16;36.13;;;7.38;;
78322;SDS011;67583;50.616;-3.404;2023-10-19T06:08:42;51.72;;;7.50;;
78322;SDS011;67583;50.616;-3.404;2023-10-19T06:11:07;46.63;;;7.95;;
78322;SDS011;67583;50.616;-3.404;2023-10-19T06:13:33;45.22;;;9.63;;
78322;SDS011;67583;50.616;-3.404;2023-10-19T06:15:58;37.38;;;6.03;;
78322;SDS011;67583;50.616;-3.404;2023-10-19T06:18:24;33.20;;;6.25;;
78322;SDS011;67583;50.616;-3.404;2023-10-19T06:20:49;29.92;;;6.18;;
78322;SDS011;67583;50.616;-3.404;2023-10-19T06:23:16;37.45;;;6.93;;
78322;SDS011;67583;50.616;-3.404;2023-10-19T06:25:43;43.67;;;9.73;;
78322;SDS011;67583;50.616;-3.404;2023-10-19T06:28:08;37.20;;;6.38;;
78322;SDS011;67583;50.616;-3.404;2023-10-19T06:30:34;40.13;;;6.88;;
78322;SDS011;67583;50.616;-3.404;2023-10-19T06:33:00;45.38;;;7.70;;
78322;SDS011;67583;50.616;-3.404;2023-10-19T06:35:26;38.97;;;6.95;;
78322;SDS011;67583;50.616;-3.404;2023-10-19T06:37:52;49.63;;;7.88;;
78322;SDS011;67583;50.616;-3.404;2023-10-19T06:40:19;35.83;;;7.53;;
78322;SDS011;67583;50.616;-3.404;2023-10-19T06:42:45;31.83;;;5.97;;
78322;SDS011;67583;50.616;-3.404;2023-10-19T06:45:12;41.50;;;6.03;;
78322;SDS011;67583;50.616;-3.404;2023-10-19T06:47:44;17.48;;;3.63;;
78322;SDS011;67583;50.616;-3.404;2023-10-19T06:50:16;34.42;;;5.53;;
78322;SDS011;67583;50.616;-3.404;2023-10-19T06:52:45;36.85;;;8.05;;
78322;SDS011;67583;50.616;-3.404;2023-10-19T06:55:12;56.50;;;9.63;;
78322;SDS011;67583;50.616;-3.404;2023-10-19T06:57:42;40.30;;;7.40;;
78322;SDS011;67583;50.616;-3.404;2023-10-19T07:00:09;44.08;;;5.75;;
78322;SDS011;67583;50.616;-3.404;2023-10-19T07:02:43;34.55;;;6.68;;
78322;SDS011;67583;50.616;-3.404;2023-10-19T07:05:09;36.53;;;7.15;;
78322;SDS011;67583;50.616;-3.404;2023-10-19T07:07:37;39.65;;;6.38;;
78322;SDS011;67583;50.616;-3.404;2023-10-19T07:10:05;36.88;;;6.07;;
78322;SDS011;67583;50.616;-3.404;2023-10-19T07:12:35;46.33;;;7.10;;
78322;SDS011;67583;50.616;-3.404;2023-10-19T07:15:02;43.17;;;6.85;;
78322;SDS011;67583;50.616;-3.404;2023-10-19T07:17:31;42.63;;;9.32;;
78322;SDS011;67583;50.616;-3.404;2023-10-19T07:19:57;45.78;;;7.78;;
78322;SDS011;67583;50.616;-3.404;2023-10-19T07:22:22;50.10;;;9.80;;
78322;SDS011;67583;50.616;-3.404;2023-10-19T07:24:48;43.88;;;9.02;;
78322;SDS011;67583;50.616;-3.404;2023-10-19T07:27:14;33.58;;;6.63;;
78322;SDS011;67583;50.616;-3.404;2023-10-19T07:29:44;42.92;;;8.02;;
78322;SDS011;67583;50.616;-3.404;2023-10-19T07:32:13;38.63;;;6.90;;
78322;SDS011;67583;50.616;-3.404;2023-10-19T07:34:41;42.58;;;6.30;;
78322;SDS011;67583;50.616;-3.404;2023-10-19T07:37:09;36.05;;;5.70;;
78322;SDS011;67583;50.616;-3.404;2023-10-19T07:39:40;39.72;;;5.72;;
78322;SDS011;67583;50.616;-3.404;2023-10-19T07:42:17;39.38;;;5.82;;
78322;SDS011;67583;50.616;-3.404;2023-10-19T07:44:42;38.53;;;5.38;;
78322;SDS011;67583;50.616;-3.404;2023-10-19T07:47:08;31.88;;;6.22;;
78322;SDS011;67583;50.616;-3.404;2023-10-19T07:49:37;40.22;;;7.55;;
78322;SDS011;67583;50.616;-3.404;2023-10-19T07:54:32;37.22;;;5.68;;
78322;SDS011;67583;50.616;-3.404;2023-10-19T07:56:58;40.10;;;6.72;;
78322;SDS011;67583;50.616;-3.404;2023-10-19T07:59:28;36.75;;;6.80;;
78322;SDS011;67583;50.616;-3.404;2023-10-19T08:01:54;31.38;;;5.90;;
78322;SDS011;67583;50.616;-3.404;2023-10-19T08:04:19;48.95;;;7.88;;
78322;SDS011;67583;50.616;-3.404;2023-10-19T08:06:44;48.03;;;7.68;;
78322;SDS011;67583;50.616;-3.404;2023-10-19T08:09:10;47.72;;;7.65;;
78322;SDS011;67583;50.616;-3.404;2023-10-19T08:11:36;52.70;;;9.75;;
78322;SDS011;67583;50.616;-3.404;2023-10-19T08:14:02;33.55;;;5.80;;
78322;SDS011;67583;50.616;-3.404;2023-10-19T08:16:27;31.67;;;7.53;;
78322;SDS011;67583;50.616;-3.404;2023-10-19T08:18:53;49.60;;;7.35;;
78322;SDS011;67583;50.616;-3.404;2023-10-19T08:21:19;42.03;;;6.88;;
78322;SDS011;67583;50.616;-3.404;2023-10-19T08:23:44;43.47;;;6.47;;
78322;SDS011;67583;50.616;-3.404;2023-10-19T08:26:11;33.90;;;7.18;;
78322;SDS011;67583;50.616;-3.404;2023-10-19T08:28:36;40.38;;;6.32;;
78322;SDS011;67583;50.616;-3.404;2023-10-19T08:31:02;37.75;;;7.45;;
78322;SDS011;67583;50.616;-3.404;2023-10-19T08:33:28;38.95;;;7.55;;
78322;SDS011;67583;50.616;-3.404;2023-10-19T08:35:55;35.08;;;7.78;;
78322;SDS011;67583;50.616;-3.404;2023-10-19T08:38:21;43.80;;;6.47;;
78322;SDS011;67583;50.616;-3.404;2023-10-19T08:40:48;40.28;;;7.90;;
78322;SDS011;67583;50.616;-3.404;2023-10-19T08:43:15;39.88;;;6.95;;
78322;SDS011;67583;50.616;-3.404;2023-10-19T08:45:43;45.70;;;6.53;;
78322;SDS011;67583;50.616;-3.404;2023-10-19T08:48:09;40.70;;;5.90;;
78322;SDS011;67583;50.616;-3.404;2023-10-19T08:50:36;40.90;;;5.85;;
78322;SDS011;67583;50.616;-3.404;2023-10-19T08:53:03;33.72;;;5.90;;
78322;SDS011;67583;50.616;-3.404;2023-10-19T08:55:30;33.17;;;7.15;;
78322;SDS011;67583;50.616;-3.404;2023-10-19T08:57:56;40.88;;;6.35;;
78322;SDS011;67583;50.616;-3.404;2023-10-19T09:00:23;35.40;;;7.03;;
78322;SDS011;67583;50.616;-3.404;2023-10-19T09:02:55;38.40;;;7.43;;
78322;SDS011;67583;50.616;-3.404;2023-10-19T09:05:24;27.85;;;7.20;;
78322;SDS011;67583;50.616;-3.404;2023-10-19T09:07:53;35.15;;;7.03;;
78322;SDS011;67583;50.616;-3.404;2023-10-19T09:10:25;35.10;;;6.40;;
78322;SDS011;67583;50.616;-3.404;2023-10-19T09:13:04;35.03;;;7.57;;
78322;SDS011;67583;50.616;-3.404;2023-10-19T09:15:34;29.75;;;5.50;;
78322;SDS011;67583;50.616;-3.404;2023-10-19T09:18:20;45.08;;;8.02;;
78322;SDS011;67583;50.616;-3.404;2023-10-19T09:20:47;29.63;;;5.95;;
78322;SDS011;67583;50.616;-3.404;2023-10-19T09:23:27;31.50;;;7.05;;
78322;SDS011;67583;50.616;-3.404;2023-10-19T09:25:55;38.97;;;7.35;;
78322;SDS011;67583;50.616;-3.404;2023-10-19T09:28:21;35.85;;;5.50;;
78322;SDS011;67583;50.616;-3.404;2023-10-19T09:30:48;36.60;;;6.13;;
78322;SDS011;67583;50.616;-3.404;2023-10-19T09:33:14;45.88;;;7.25;;
78322;SDS011;67583;50.616;-3.404;2023-10-19T09:35:42;42.28;;;7.32;;
78322;SDS011;67583;50.616;-3.404;2023-10-19T09:38:12;36.90;;;6.45;;
78322;SDS011;67583;50.616;-3.404;2023-10-19T09:40:38;41.08;;;5.57;;
78322;SDS011;67583;50.616;-3.404;2023-10-19T09:43:05;31.73;;;5.10;;
78322;SDS011;67583;50.616;-3.404;2023-10-19T09:45:37;28.08;;;5.18;;
78322;SDS011;67583;50.616;-3.404;2023-10-19T09:48:07;32.13;;;6.40;;
78322;SDS011;67583;50.616;-3.404;2023-10-19T09:50:33;35.35;;;7.07;;
78322;SDS011;67583;50.616;-3.404;2023-10-19T09:52:58;32.60;;;6.57;;
78322;SDS011;67583;50.616;-3.404;2023-10-19T09:58:02;35.90;;;6.95;;
78322;SDS011;67583;50.616;-3.404;2023-10-19T10:00:44;35.25;;;7.13;;
78322;SDS011;67583;50.616;-3.404;2023-10-19T10:06:07;29.27;;;6.78;;
78322;SDS011;67583;50.616;-3.404;2023-10-19T10:08:33;31.23;;;6.20;;
78322;SDS011;67583;50.616;-3.404;2023-10-19T10:11:13;45.13;;;6.28;;
78322;SDS011;67583;50.616;-3.404;2023-10-19T10:13:44;29.80;;;5.75;;
78322;SDS011;67583;50.616;-3.404;2023-10-19T10:16:12;35.05;;;7.60;;
78322;SDS011;67583;50.616;-3.404;2023-10-19T10:18:40;34.08;;;6.55;;
78322;SDS011;67583;50.616;-3.404;2023-10-19T10:23:34;33.83;;;6.25;;
78322;SDS011;67583;50.616;-3.404;2023-10-19T10:26:05;36.30;;;6.45;;
78322;SDS011;67583;50.616;-3.404;2023-10-19T10:28:33;35.40;;;7.72;;
78322;SDS011;67583;50.616;-3.404;2023-10-19T10:31:10;28.42;;;6.30;;
78322;SDS011;67583;50.616;-3.404;2023-10-19T10:33:43;40.65;;;6.75;;
78322;SDS011;67583;50.616;-3.404;2023-10-19T10:36:17;49.13;;;9.10;;
78322;SDS011;67583;50.616;-3.404;2023-10-19T10:38:44;40.97;;;6.50;;
78322;SDS011;67583;50.616;-3.404;2023-10-19T10:41:11;28.92;;;7.85;;
78322;SDS011;67583;50.616;-3.404;2023-10-19T10:43:49;30.30;;;7.03;;
78322;SDS011;67583;50.616;-3.404;2023-10-19T10:46:17;32.15;;;5.60;;
78322;SDS011;67583;50.616;-3.404;2023-10-19T10:48:43;37.38;;;7.10;;
78322;SDS011;67583;50.616;-3.404;2023-10-19T10:51:42;40.20;;;7.03;;
78322;SDS011;67583;50.616;-3.404;2023-10-19T10:54:01;34.10;;;5.15;;
78322;SDS011;67583;50.616;-3.404;2023-10-19T10:56:29;25.38;;;5.93;;
78322;SDS011;67583;50.616;-3.404;2023-10-19T10:58:54;35.55;;;6.10;;
78322;SDS011;67583;50.616;-3.404;2023-10-19T11:01:33;25.35;;;4.90;;
78322;SDS011;67583;50.616;-3.404;2023-10-19T11:04:08;25.92;;;5.93;;
78322;SDS011;67583;50.616;-3.404;2023-10-19T11:09:14;25.80;;;6.20;;
78322;SDS011;67583;50.616;-3.404;2023-10-19T11:11:43;32.00;;;7.78;;
78322;SDS011;67583;50.616;-3.404;2023-10-19T11:14:10;28.55;;;6.00;;
78322;SDS011;67583;50.616;-3.404;2023-10-19T11:16:38;26.55;;;5.32;;
78322;SDS011;67583;50.616;-3.404;2023-10-19T11:19:04;24.95;;;4.75;;
78322;SDS011;67583;50.616;-3.404;2023-10-19T11:21:30;30.27;;;4.97;;
78322;SDS011;67583;50.616;-3.404;2023-10-19T11:23:55;25.85;;;5.80;;
78322;SDS011;67583;50.616;-3.404;2023-10-19T11:26:22;26.58;;;5.55;;
78322;SDS011;67583;50.616;-3.404;2023-10-19T11:29:00;29.98;;;5.07;;
78322;SDS011;67583;50.616;-3.404;2023-10-19T11:31:29;21.20;;;4.75;;
78322;SDS011;67583;50.616;-3.404;2023-10-19T11:34:02;33.50;;;4.63;;
78322;SDS011;67583;50.616;-3.404;2023-10-19T11:36:28;23.40;;;6.53;;
78322;SDS011;67583;50.616;-3.404;2023-10-19T11:38:54;22.75;;;5.97;;
78322;SDS011;67583;50.616;-3.404;2023-10-19T11:41:19;24.80;;;4.38;;
78322;SDS011;67583;50.616;-3.404;2023-10-19T11:43:45;22.50;;;4.15;;
78322;SDS011;67583;50.616;-3.404;2023-10-19T11:46:12;21.83;;;4.13;;
78322;SDS011;67583;50.616;-3.404;2023-10-19T11:48:43;22.75;;;3.92;;
78322;SDS011;67583;50.616;-3.404;2023-10-19T11:51:09;31.33;;;5.45;;
78322;SDS011;67583;50.616;-3.404;2023-10-19T11:53:36;25.55;;;5.88;;
78322;SDS011;67583;50.616;-3.404;2023-10-19T11:56:03;23.27;;;4.18;;
78322;SDS011;67583;50.616;-3.404;2023-10-19T11:58:31;17.77;;;3.95;;
78322;SDS011;67583;50.616;-3.404;2023-10-19T12:00:58;19.40;;;3.92;;
78322;SDS011;67583;50.616;-3.404;2023-10-19T12:03:24;27.30;;;6.10;;
78322;SDS011;67583;50.616;-3.404;2023-10-19T12:05:53;24.10;;;4.20;;
78322;SDS011;67583;50.616;-3.404;2023-10-19T12:08:19;25.42;;;5.35;;
78322;SDS011;67583;50.616;-3.404;2023-10-19T12:10:44;23.25;;;4.60;;
78322;SDS011;67583;50.616;-3.404;2023-10-19T12:13:10;19.17;;;4.32;;
78322;SDS011;67583;50.616;-3.404;2023-10-19T12:15:35;26.10;;;4.30;;
78322;SDS011;67583;50.616;-3.404;2023-10-19T12:18:01;26.92;;;4.35;;
78322;SDS011;67583;50.616;-3.404;2023-10-19T12:20:28;21.73;;;4.47;;
78322;SDS011;67583;50.616;-3.404;2023-10-19T12:22:56;20.52;;;4.28;;
78322;SDS011;67583;50.616;-3.404;2023-10-19T12:25:21;25.13;;;6.05;;
78322;SDS011;67583;50.616;-3.404;2023-10-19T12:27:59;27.48;;;4.43;;
78322;SDS011;67583;50.616;-3.404;2023-10-19T12:30:25;22.38;;;5.07;;
78322;SDS011;67583;50.616;-3.404;2023-10-19T12:32:53;22.13;;;4.28;;
78322;SDS011;67583;50.616;-3.404;2023-10-19T12:35:19;26.27;;;3.88;;
78322;SDS011;67583;50.616;-3.404;2023-10-19T12:37:49;21.88;;;4.07;;
78322;SDS011;67583;50.616;-3.404;2023-10-19T12:40:18;23.27;;;5.07;;
78322;SDS011;67583;50.616;-3.404;2023-10-19T12:42:53;31.63;;;6.60;;
78322;SDS011;67583;50.616;-3.404;2023-10-19T12:45:22;26.20;;;5.65;;
78322;SDS011;67583;50.616;-3.404;2023-10-19T12:47:49;27.30;;;4.25;;
78322;SDS011;67583;50.616;-3.404;2023-10-19T12:50:14;29.75;;;4.68;;
78322;SDS011;67583;50.616;-3.404;2023-10-19T12:52:40;24.27;;;4.25;;
78322;SDS011;67583;50.616;-3.404;2023-10-19T12:55:06;18.65;;;4.70;;
78322;SDS011;67583;50.616;-3.404;2023-10-19T12:57:33;26.67;;;4.32;;
78322;SDS011;67583;50.616;-3.404;2023-10-19T13:00:00;21.70;;;5.13;;
78322;SDS011;67583;50.616;-3.404;2023-10-19T13:02:48;27.73;;;5.22;;
78322;SDS011;67583;50.616;-3.404;2023-10-19T13:05:13;23.90;;;4.80;;
78322;SDS011;67583;50.616;-3.404;2023-10-19T13:07:43;31.63;;;5.60;;
78322;SDS011;67583;50.616;-3.404;2023-10-19T13:10:09;29.48;;;5.28;;
78322;SDS011;67583;50.616;-3.404;2023-10-19T13:12:36;32.58;;;6.80;;
78322;SDS011;67583;50.616;-3.404;2023-10-19T13:15:01;23.25;;;4.85;;
78322;SDS011;67583;50.616;-3.404;2023-10-19T13:17:27;29.10;;;4.95;;
78322;SDS011;67583;50.616;-3.404;2023-10-19T13:19:53;29.10;;;5.30;;
78322;SDS011;67583;50.616;-3.404;2023-10-19T13:22:21;27.10;;;4.47;;
78322;SDS011;67583;50.616;-3.404;2023-10-19T13:24:47;34.65;;;5.68;;
78322;SDS011;67583;50.616;-3.404;2023-10-19T13:27:13;31.00;;;6.38;;
78322;SDS011;67583;50.616;-3.404;2023-10-19T13:29:39;29.55;;;6.38;;
78322;SDS011;67583;50.616;-3.404;2023-10-19T13:32:06;24.52;;;4.80;;
78322;SDS011;67583;50.616;-3.404;2023-10-19T13:34:32;34.47;;;5.88;;
78322;SDS011;67583;50.616;-3.404;2023-10-19T13:36:57;29.55;;;6.15;;
78322;SDS011;67583;50.616;-3.404;2023-10-19T13:39:22;32.30;;;5.53;;
78322;SDS011;67583;50.616;-3.404;2023-10-19T13:41:50;33.92;;;6.45;;
78322;SDS011;67583;50.616;-3.404;2023-10-19T13:44:17;30.00;;;4.68;;
78322;SDS011;67583;50.616;-3.404;2023-10-19T13:46:45;33.72;;;5.38;;
78322;SDS011;67583;50.616;-3.404;2023-10-19T13:49:11;25.55;;;4.68;;
78322;SDS011;67583;50.616;-3.404;2023-10-19T13:51:36;31.48;;;6.18;;
78322;SDS011;67583;50.616;-3.404;2023-10-19T13:54:02;33.08;;;6.40;;
78322;SDS011;67583;50.616;-3.404;2023-10-19T13:56:27;18.55;;;3.65;;
78322;SDS011;67583;50.616;-3.404;2023-10-19T13:58:53;27.90;;;5.80;;
78322;SDS011;67583;50.616;-3.404;2023-10-19T14:01:19;25.63;;;4.50;;
78322;SDS011;67583;50.616;-3.404;2023-10-19T14:03:50;27.27;;;5.32;;
78322;SDS011;67583;50.616;-3.404;2023-10-19T14:06:16;28.95;;;6.75;;
78322;SDS011;67583;50.616;-3.404;2023-10-19T14:08:42;24.48;;;6.45;;
78322;SDS011;67583;50.616;-3.404;2023-10-19T14:11:07;30.80;;;5.75;;
78322;SDS011;67583;50.616;-3.404;2023-10-19T14:13:33;22.45;;;5.22;;
78322;SDS011;67583;50.616;-3.404;2023-10-19T14:16:04;31.05;;;6.07;;
78322;SDS011;67583;50.616;-3.404;2023-10-19T14:18:30;25.10;;;4.15;;
78322;SDS011;67583;50.616;-3.404;2023-10-19T14:20:56;28.55;;;4.85;;
78322;SDS011;67583;50.616;-3.404;2023-10-19T14:23:21;29.33;;;5.25;;
78322;SDS011;67583;50.616;-3.404;2023-10-19T14:25:49;25.92;;;5.40;;
78322;SDS011;67583;50.616;-3.404;2023-10-19T14:28:15;30.85;;;5.75;;
78322;SDS011;67583;50.616;-3.404;2023-10-19T14:30:40;25.52;;;5.38;;
78322;SDS011;67583;50.616;-3.404;2023-10-19T14:33:05;31.40;;;6.32;;
78322;SDS011;67583;50.616;-3.404;2023-10-19T14:35:35;31.77;;;6.65;;
78322;SDS011;67583;50.616;-3.404;2023-10-19T14:38:04;30.95;;;5.47;;
78322;SDS011;67583;50.616;-3.404;2023-10-19T14:40:31;25.27;;;4.93;;
78322;SDS011;67583;50.616;-3.404;2023-10-19T14:42:57;33.05;;;5.38;;
78322;SDS011;67583;50.616;-3.404;2023-10-19T14:45:26;25.75;;;5.32;;
78322;SDS011;67583;50.616;-3.404;2023-10-19T14:47:55;38.42;;;6.15;;